createdAt,value
2019-03-01T00:01:38.127Z,50.23
2019-03-01T00:04:40.521Z,51.53
2019-03-01T00:08:16.283Z,48.87
2019-03-01T00:11:51.386Z,47.00
2019-03-01T00:15:20.987Z,47.83
2019-03-01T00:18:46.235Z,51.33
2019-03-01T00:21:56.319Z,48.57
2019-03-01T00:25:15.951Z,47.40
2019-03-01T00:28:19.318Z,46.27
2019-03-01T00:31:40.106Z,44.37
2019-03-01T00:35:08.291Z,41.57
2019-03-01T00:38:44.977Z,48.70
2019-03-01T00:42:23.496Z,49.33
2019-03-01T00:44:58.488Z,48.57
2019-03-01T00:47:33.561Z,49.03
2019-03-01T00:50:08.789Z,52.73
2019-03-01T00:52:43.661Z,54.30
2019-03-01T00:55:19.555Z,52.50
2019-03-01T00:58:12.701Z,49.03
2019-03-01T01:00:49.655Z,46.40
2019-03-01T01:03:25.561Z,45.97
2019-03-01T01:06:00.538Z,48.23
2019-03-01T01:08:35.405Z,49.97
2019-03-01T01:11:11.411Z,44.90
2019-03-01T01:13:47.867Z,51.30
2019-03-01T01:16:22.825Z,51.90
2019-03-01T01:18:57.597Z,50.37
2019-03-01T01:21:32.595Z,52.37
2019-03-01T01:24:07.443Z,51.03
2019-03-01T01:26:42.325Z,50.97
2019-03-01T01:29:17.261Z,48.10
2019-03-01T01:31:52.159Z,49.93
2019-03-01T01:34:30.021Z,52.13
2019-03-01T01:37:04.813Z,49.07
2019-03-01T01:39:39.587Z,51.93
2019-03-01T01:42:14.506Z,52.03
2019-03-01T01:44:49.288Z,52.90
2019-03-01T01:47:24.250Z,54.67
2019-03-01T01:49:59.015Z,53.60
2019-03-01T01:52:34.320Z,52.00
2019-03-01T01:55:09.320Z,55.30
2019-03-01T01:57:44.287Z,53.07
2019-03-01T02:00:19.048Z,51.53
2019-03-01T02:02:54.043Z,55.03
2019-03-01T02:05:29.937Z,53.63
2019-03-01T02:08:04.843Z,54.80
2019-03-01T02:10:39.604Z,47.97
2019-03-01T02:13:14.567Z,50.17
2019-03-01T02:15:49.472Z,50.30
2019-03-01T02:18:24.464Z,49.17
2019-03-01T02:20:59.345Z,50.40
2019-03-01T02:23:34.279Z,49.20
2019-03-01T02:26:09.136Z,53.30
2019-03-01T02:28:44.033Z,55.37
2019-03-01T02:31:21.771Z,52.73
2019-03-01T02:33:56.585Z,53.60
2019-03-01T02:36:31.480Z,53.50
2019-03-01T02:39:07.814Z,52.30
2019-03-01T02:41:42.808Z,52.03
2019-03-01T02:44:17.572Z,50.70
2019-03-01T02:46:52.476Z,52.57
2019-03-01T02:49:27.356Z,45.67
2019-03-01T02:52:02.232Z,49.47
2019-03-01T02:54:37.138Z,49.43
2019-03-01T02:57:12.029Z,49.73
2019-03-01T02:59:46.867Z,48.17
2019-03-01T03:02:21.763Z,48.97
2019-03-01T03:04:56.774Z,48.30
2019-03-01T03:07:37.803Z,49.60
2019-03-01T03:10:13.659Z,52.83
2019-03-01T03:12:50.324Z,54.67
2019-03-01T03:15:31.580Z,53.40
2019-03-01T03:18:09.264Z,52.43
2019-03-01T03:20:46.976Z,51.03
2019-03-01T03:23:21.994Z,51.83
2019-03-01T03:25:56.892Z,50.57
2019-03-01T03:28:31.906Z,51.57
2019-03-01T03:31:06.767Z,50.13
2019-03-01T03:33:41.682Z,49.90
2019-03-01T03:36:54.172Z,51.93
2019-03-01T03:39:30.431Z,49.77
2019-03-01T03:42:05.433Z,50.47
2019-03-01T03:44:41.314Z,50.80
2019-03-01T03:47:21.414Z,50.33
2019-03-01T03:49:56.195Z,49.20
2019-03-01T03:52:31.159Z,51.70
2019-03-01T03:55:06.948Z,47.27
2019-03-01T03:57:41.933Z,45.87
2019-03-01T04:00:19.218Z,46.27
2019-03-01T04:02:54.230Z,48.77
2019-03-01T04:05:30.006Z,47.03
2019-03-01T04:08:04.875Z,48.77
2019-03-01T04:10:39.667Z,49.20
2019-03-01T04:13:16.610Z,49.17
2019-03-01T04:15:52.232Z,48.60
2019-03-01T04:18:27.156Z,49.37
2019-03-01T04:21:02.167Z,48.27
2019-03-01T04:23:37.080Z,47.70
2019-03-01T04:26:11.995Z,43.90
2019-03-01T04:28:46.859Z,44.73
2019-03-01T04:31:21.772Z,44.37
2019-03-01T04:33:56.671Z,44.20
2019-03-01T04:36:31.604Z,44.07
2019-03-01T04:39:09.556Z,45.87
2019-03-01T04:41:46.900Z,44.73
2019-03-01T04:44:22.649Z,45.33
2019-03-01T04:46:58.114Z,44.80
2019-03-01T04:49:34.458Z,45.60
2019-03-01T04:52:38.441Z,47.90
2019-03-01T04:55:16.710Z,47.57
2019-03-01T04:57:51.790Z,46.57
2019-03-01T05:00:26.834Z,47.37
2019-03-01T05:03:01.806Z,43.67
2019-03-01T05:05:36.946Z,42.17
2019-03-01T05:08:11.841Z,45.30
2019-03-01T05:10:46.760Z,43.80
2019-03-01T05:13:21.664Z,45.63
2019-03-01T05:15:56.568Z,42.73
2019-03-01T05:19:05.810Z,43.60
2019-03-01T05:21:45.424Z,40.90
2019-03-01T05:24:20.317Z,39.67
2019-03-01T05:26:55.124Z,39.20
2019-03-01T05:29:31.043Z,38.27
2019-03-01T05:32:06.806Z,37.80
2019-03-01T05:34:41.806Z,37.23
2019-03-01T05:37:16.676Z,35.60
2019-03-01T05:39:51.671Z,34.10
2019-03-01T05:42:26.529Z,32.80
2019-03-01T05:45:03.540Z,29.33
2019-03-01T05:47:38.403Z,22.43
2019-03-01T05:50:13.990Z,23.40
2019-03-01T05:52:48.742Z,22.17
2019-03-01T05:55:24.086Z,21.20
2019-03-01T05:58:46.018Z,19.27
2019-03-01T06:01:55.216Z,18.50
2019-03-01T06:04:39.948Z,17.27
2019-03-01T06:07:48.286Z,17.80
2019-03-01T06:11:19.460Z,16.27
2019-03-01T06:14:47.490Z,15.23
2019-03-01T06:18:08.988Z,15.20
2019-03-01T06:21:02.458Z,14.77
2019-03-01T06:24:22.792Z,14.50
2019-03-01T06:27:50.846Z,13.97
2019-03-01T06:31:31.808Z,13.53
2019-03-01T06:34:46.789Z,13.00
2019-03-01T06:38:52.106Z,11.83
2019-03-01T06:42:11.244Z,8.90
2019-03-01T06:45:37.533Z,9.30
2019-03-01T06:48:16.426Z,9.03
2019-03-01T06:50:55.160Z,7.83
2019-03-01T06:53:30.062Z,6.87
2019-03-01T06:56:06.910Z,7.13
2019-03-01T06:58:55.407Z,6.50
2019-03-01T07:01:43.730Z,5.80
2019-03-01T07:04:19.345Z,6.80
2019-03-01T07:06:54.261Z,5.93
2019-03-01T07:09:29.366Z,7.73
2019-03-01T07:12:04.309Z,8.80
2019-03-01T07:14:40.442Z,10.00
2019-03-01T07:17:15.371Z,11.63
2019-03-01T07:19:50.335Z,10.27
2019-03-01T07:22:25.193Z,9.80
2019-03-01T07:25:00.151Z,8.60
2019-03-01T07:27:35.326Z,10.00
2019-03-01T07:30:10.756Z,9.23
2019-03-01T07:32:45.824Z,10.37
2019-03-01T07:35:20.816Z,11.43
2019-03-01T07:37:55.958Z,9.60
2019-03-01T07:40:30.938Z,10.80
2019-03-01T07:43:07.675Z,10.23
2019-03-01T07:45:42.812Z,8.07
2019-03-01T07:48:17.978Z,8.20
2019-03-01T07:50:55.248Z,8.70
2019-03-01T07:53:29.620Z,8.80
2019-03-01T07:56:05.284Z,8.20
2019-03-01T07:58:40.659Z,7.33
2019-03-01T08:01:15.487Z,5.60
2019-03-01T08:03:53.005Z,6.50
2019-03-01T08:06:27.212Z,5.90
2019-03-01T08:09:02.170Z,5.70
2019-03-01T08:11:38.936Z,6.70
2019-03-01T08:14:13.934Z,5.67
2019-03-01T08:16:48.906Z,5.53
2019-03-01T08:19:23.952Z,6.30
2019-03-01T08:21:58.870Z,6.60
2019-03-01T08:24:33.914Z,6.37
2019-03-01T08:27:11.880Z,6.43
2019-03-01T08:29:46.808Z,6.70
2019-03-01T08:32:21.696Z,5.90
2019-03-01T08:34:57.500Z,6.00
2019-03-01T08:37:33.367Z,5.97
2019-03-01T08:40:14.664Z,6.40
2019-03-01T08:42:48.937Z,6.70
2019-03-01T08:45:23.918Z,7.23
2019-03-01T08:47:59.680Z,6.80
2019-03-01T08:50:34.630Z,8.03
2019-03-01T08:53:11.445Z,6.70
2019-03-01T08:55:52.349Z,7.03
2019-03-01T08:58:28.463Z,6.93
2019-03-01T09:01:08.371Z,6.20
2019-03-01T09:03:50.650Z,6.73
2019-03-01T09:06:35.812Z,5.83
2019-03-01T09:09:10.946Z,6.87
2019-03-01T09:11:45.926Z,5.60
2019-03-01T09:15:26.102Z,6.40
2019-03-01T09:18:15.407Z,6.00
2019-03-01T09:20:51.384Z,6.53
2019-03-01T09:23:28.777Z,5.53
2019-03-01T09:26:05.233Z,5.77
2019-03-01T09:28:40.197Z,5.63
2019-03-01T09:31:15.159Z,4.53
2019-03-01T09:33:50.055Z,4.20
2019-03-01T09:36:28.991Z,3.70
2019-03-01T09:39:05.177Z,4.10
2019-03-01T09:41:41.619Z,3.50
2019-03-01T09:44:17.586Z,3.17
2019-03-01T09:46:52.482Z,3.67
2019-03-01T09:49:27.442Z,3.83
2019-03-01T09:52:02.876Z,3.20
2019-03-01T09:54:37.825Z,3.57
2019-03-01T09:57:15.587Z,3.23
2019-03-01T09:59:49.632Z,2.73
2019-03-01T10:02:24.601Z,3.40
2019-03-01T10:04:59.562Z,2.40
2019-03-01T10:07:34.529Z,2.50
2019-03-01T10:10:12.209Z,2.60
2019-03-01T10:12:47.160Z,2.60
2019-03-01T10:15:22.077Z,3.77
2019-03-01T10:17:57.864Z,2.60
2019-03-01T10:20:33.647Z,2.50
2019-03-01T10:23:08.597Z,3.10
2019-03-01T10:25:43.445Z,2.83
2019-03-01T10:28:18.423Z,2.30
2019-03-01T10:33:49.418Z,2.10
2019-03-01T10:36:24.407Z,2.50
2019-03-01T10:40:21.190Z,2.40
2019-03-01T10:42:56.009Z,2.00
2019-03-01T10:45:31.004Z,2.40
2019-03-01T10:48:06.015Z,1.97
2019-03-01T10:50:40.854Z,1.67
2019-03-01T10:53:15.762Z,2.20
2019-03-01T10:55:50.678Z,1.70
2019-03-01T10:58:58.389Z,2.50
2019-03-01T11:01:34.460Z,1.77
2019-03-01T11:04:09.361Z,2.00
2019-03-01T11:06:47.388Z,2.30
2019-03-01T11:09:22.321Z,2.03
2019-03-01T11:11:57.181Z,2.30
2019-03-01T11:14:32.958Z,2.50
2019-03-01T11:17:07.931Z,2.40
2019-03-01T11:19:43.637Z,2.57
2019-03-01T11:22:18.784Z,2.13
2019-03-01T11:24:53.803Z,1.40
2019-03-01T11:27:28.721Z,1.50
2019-03-01T11:30:03.616Z,1.80
2019-03-01T11:32:38.988Z,1.43
2019-03-01T11:35:15.138Z,1.70
2019-03-01T11:37:50.049Z,1.67
2019-03-01T11:40:28.744Z,1.47
2019-03-01T11:43:07.030Z,1.53
2019-03-01T11:45:41.911Z,1.90
2019-03-01T11:48:16.932Z,1.40
2019-03-01T11:50:51.830Z,1.87
2019-03-01T11:53:26.703Z,2.17
2019-03-01T11:56:25.717Z,1.60
2019-03-01T11:59:02.115Z,1.97
2019-03-01T12:01:37.049Z,1.63
2019-03-01T12:04:12.922Z,1.60
2019-03-01T12:06:47.779Z,1.47
2019-03-01T12:09:22.659Z,2.13
2019-03-01T12:11:57.595Z,1.30
2019-03-01T12:14:33.417Z,1.60
2019-03-01T12:17:14.461Z,1.30
2019-03-01T12:19:50.417Z,1.40
2019-03-01T12:22:26.122Z,1.23
2019-03-01T12:25:01.134Z,1.67
2019-03-01T12:27:38.485Z,1.23
2019-03-01T12:30:18.885Z,1.13
2019-03-01T12:32:56.252Z,1.50
2019-03-01T12:35:33.715Z,1.43
2019-03-01T12:38:11.031Z,1.93
2019-03-01T12:40:46.478Z,1.97
2019-03-01T12:43:21.609Z,1.60
2019-03-01T12:45:57.008Z,1.77
2019-03-01T12:48:32.087Z,1.77
2019-03-01T12:51:07.129Z,1.63
2019-03-01T12:53:42.201Z,1.60
2019-03-01T12:56:17.189Z,1.50
2019-03-01T12:58:52.081Z,1.60
2019-03-01T13:01:27.021Z,1.30
2019-03-01T13:04:02.899Z,1.27
2019-03-01T13:06:39.931Z,1.43
2019-03-01T13:09:17.748Z,1.27
2019-03-01T13:11:53.146Z,1.77
2019-03-01T13:14:29.345Z,1.70
2019-03-01T13:17:04.657Z,1.63
2019-03-01T13:19:39.571Z,1.70
2019-03-01T13:22:14.547Z,1.60
2019-03-01T13:24:50.413Z,1.73
2019-03-01T13:27:26.567Z,1.63
2019-03-01T13:30:01.561Z,1.27
2019-03-01T13:32:36.607Z,1.60
2019-03-01T13:35:12.618Z,1.50
2019-03-01T13:37:47.667Z,1.17
2019-03-01T13:40:24.558Z,1.37
2019-03-01T13:42:59.315Z,1.63
2019-03-01T13:45:34.379Z,1.43
2019-03-01T13:48:10.131Z,1.47
2019-03-01T13:50:51.291Z,1.43
2019-03-01T13:53:30.270Z,1.07
2019-03-01T13:56:04.258Z,1.30
2019-03-01T13:58:39.278Z,1.87
2019-03-01T14:01:15.466Z,1.53
2019-03-01T14:03:50.546Z,1.53
2019-03-01T14:06:26.505Z,1.17
2019-03-01T14:09:01.445Z,1.00
2019-03-01T14:11:37.971Z,1.60
2019-03-01T14:14:14.003Z,1.70
2019-03-01T14:16:48.956Z,1.70
2019-03-01T14:19:25.209Z,1.70
2019-03-01T14:22:01.242Z,1.70
2019-03-01T14:24:36.261Z,1.97
2019-03-01T14:27:16.884Z,1.67
2019-03-01T14:29:58.109Z,1.37
2019-03-01T14:32:33.123Z,1.73
2019-03-01T14:35:08.336Z,1.40
2019-03-01T14:37:43.378Z,1.50
2019-03-01T14:40:22.488Z,2.20
2019-03-01T14:42:56.614Z,1.53
2019-03-01T14:45:32.542Z,1.43
2019-03-01T14:48:08.764Z,1.60
2019-03-01T14:50:44.390Z,1.57
2019-03-01T14:53:19.264Z,1.63
2019-03-01T14:56:03.683Z,1.70
2019-03-01T14:58:55.907Z,1.83
2019-03-01T15:02:05.226Z,1.73
2019-03-01T15:04:42.813Z,1.57
2019-03-01T15:07:18.391Z,1.80
2019-03-01T15:09:57.146Z,1.70
2019-03-01T15:12:30.046Z,2.20
2019-03-01T15:15:05.035Z,1.90
2019-03-01T15:17:43.935Z,1.70
2019-03-01T15:20:23.281Z,2.33
2019-03-01T15:22:55.182Z,2.93
2019-03-01T15:25:30.142Z,1.90
2019-03-01T15:28:05.151Z,1.70
2019-03-01T15:30:46.483Z,1.60
2019-03-01T15:33:20.683Z,2.27
2019-03-01T15:35:55.575Z,1.73
2019-03-01T15:38:30.691Z,1.40
2019-03-01T15:41:06.390Z,1.97
2019-03-01T15:43:43.177Z,2.20
2019-03-01T15:46:18.205Z,2.40
2019-03-01T15:48:53.270Z,2.70
2019-03-01T15:51:28.364Z,2.63
2019-03-01T15:54:03.383Z,1.90
2019-03-01T15:56:39.524Z,2.07
2019-03-01T15:59:15.813Z,2.13
2019-03-01T16:01:51.681Z,1.90
2019-03-01T16:04:26.590Z,2.50
2019-03-01T16:07:01.553Z,2.30
2019-03-01T16:09:42.136Z,2.27
2019-03-01T16:12:17.772Z,2.50
2019-03-01T16:14:52.680Z,2.27
2019-03-01T16:17:27.563Z,1.70
2019-03-01T16:20:02.536Z,2.10
2019-03-01T16:22:37.499Z,1.87
2019-03-01T16:25:13.837Z,2.10
2019-03-01T16:27:50.841Z,2.50
2019-03-01T16:30:26.016Z,3.30
2019-03-01T16:33:02.917Z,2.20
2019-03-01T16:35:39.715Z,1.90
2019-03-01T16:38:14.920Z,2.40
2019-03-01T16:40:49.827Z,2.57
2019-03-01T16:43:25.419Z,2.10
2019-03-01T16:46:01.336Z,1.90
2019-03-01T16:48:42.189Z,2.93
2019-03-01T16:51:18.570Z,2.00
2019-03-01T16:53:53.733Z,3.00
2019-03-01T16:56:30.272Z,2.30
2019-03-01T16:59:07.291Z,1.70
2019-03-01T17:01:43.543Z,2.30
2019-03-01T17:04:18.400Z,2.13
2019-03-01T17:06:53.372Z,2.80
2019-03-01T17:09:29.187Z,2.73
2019-03-01T17:12:04.078Z,2.97
2019-03-01T17:14:44.771Z,2.50
2019-03-01T17:17:23.620Z,2.20
2019-03-01T17:20:02.131Z,2.90
2019-03-01T17:22:35.444Z,2.60
2019-03-01T17:25:10.704Z,2.27
2019-03-01T17:27:46.012Z,1.90
2019-03-01T17:30:22.440Z,2.23
2019-03-01T17:32:58.144Z,2.77
2019-03-01T17:35:37.734Z,2.40
2019-03-01T17:38:12.104Z,2.00
2019-03-01T17:40:47.285Z,1.50
2019-03-01T17:43:22.192Z,1.50
2019-03-01T17:45:57.881Z,2.30
2019-03-01T17:48:33.480Z,2.23
2019-03-01T17:51:09.384Z,2.37
2019-03-01T17:53:46.418Z,2.07
2019-03-01T17:56:22.035Z,2.07
2019-03-01T17:58:57.693Z,1.57
2019-03-01T18:01:35.618Z,1.60
2019-03-01T18:04:09.760Z,2.00
2019-03-01T18:06:44.642Z,2.20
2019-03-01T18:09:19.535Z,2.03
2019-03-01T18:11:54.597Z,1.40
2019-03-01T18:14:36.902Z,2.40
2019-03-01T18:17:14.640Z,1.40
2019-03-01T18:19:49.970Z,2.30
2019-03-01T18:22:26.533Z,2.27
2019-03-01T18:25:22.719Z,1.83
2019-03-01T18:27:57.150Z,2.20
2019-03-01T18:30:32.070Z,2.03
2019-03-01T18:33:10.636Z,1.90
2019-03-01T18:35:45.625Z,1.53
2019-03-01T18:38:20.572Z,1.73
2019-03-01T18:40:55.372Z,2.50
2019-03-01T18:43:33.880Z,2.37
2019-03-01T18:46:08.977Z,1.60
2019-03-01T18:48:44.665Z,1.70
2019-03-01T18:51:19.663Z,1.90
2019-03-01T18:53:54.547Z,2.10
2019-03-01T18:56:29.721Z,1.93
2019-03-01T18:59:04.765Z,2.50
2019-03-01T19:01:48.472Z,1.77
2019-03-01T19:04:29.484Z,1.80
2019-03-01T19:06:59.917Z,3.00
2019-03-01T19:09:36.263Z,3.13
2019-03-01T19:12:12.566Z,2.20
2019-03-01T19:14:47.848Z,1.87
2019-03-01T19:17:22.822Z,1.60
2019-03-01T19:19:57.905Z,2.10
2019-03-01T19:22:33.892Z,2.17
2019-03-01T19:25:09.104Z,1.83
2019-03-01T19:27:47.059Z,1.57
2019-03-01T19:30:21.945Z,1.70
2019-03-01T19:32:58.978Z,1.93
2019-03-01T19:35:33.497Z,2.23
2019-03-01T19:38:08.423Z,1.50
2019-03-01T19:40:46.770Z,2.10
2019-03-01T19:43:19.904Z,1.70
2019-03-01T19:45:54.713Z,3.03
2019-03-01T19:48:29.581Z,2.00
2019-03-01T19:51:04.453Z,1.77
2019-03-01T19:53:39.347Z,2.23
2019-03-01T19:56:14.206Z,2.10
2019-03-01T19:58:49.101Z,2.07
2019-03-01T20:01:24.016Z,2.00
2019-03-01T20:03:59.095Z,1.90
2019-03-01T20:06:34.033Z,1.80
2019-03-01T20:09:09.780Z,1.80
2019-03-01T20:11:44.914Z,2.17
2019-03-01T20:14:19.846Z,2.13
2019-03-01T20:16:54.823Z,2.00
2019-03-01T20:19:31.353Z,2.10
2019-03-01T20:22:06.253Z,2.30
2019-03-01T20:24:42.012Z,2.57
2019-03-01T20:27:16.946Z,1.80
2019-03-01T20:29:52.448Z,2.33
2019-03-01T20:32:27.540Z,2.57
2019-03-01T20:35:05.220Z,2.20
2019-03-01T20:37:41.079Z,2.37
2019-03-01T20:40:16.175Z,2.27
2019-03-01T20:42:51.032Z,2.07
2019-03-01T20:45:29.912Z,2.17
2019-03-01T20:48:04.697Z,2.63
2019-03-01T20:50:39.787Z,2.50
2019-03-01T20:53:14.804Z,1.60
2019-03-01T20:55:51.032Z,2.60
2019-03-01T20:58:25.977Z,2.53
2019-03-01T21:01:01.922Z,1.40
2019-03-01T21:03:37.080Z,2.77
2019-03-01T21:06:12.178Z,1.90
2019-03-01T21:08:48.025Z,2.00
2019-03-01T21:11:25.463Z,2.77
2019-03-01T21:14:00.381Z,1.90
2019-03-01T21:16:37.384Z,2.10
2019-03-01T21:19:16.263Z,2.67
2019-03-01T21:21:51.193Z,2.33
2019-03-01T21:24:26.535Z,2.40
2019-03-01T21:27:03.757Z,2.00
2019-03-01T21:29:38.599Z,2.27
2019-03-01T21:32:14.623Z,2.30
2019-03-01T21:34:49.701Z,2.70
2019-03-01T21:37:24.482Z,2.40
2019-03-01T21:40:00.401Z,2.40
2019-03-01T21:42:35.629Z,2.60
2019-03-01T21:45:12.939Z,1.83
2019-03-01T21:47:48.187Z,2.10
2019-03-01T21:50:25.757Z,2.27
2019-03-01T21:53:01.773Z,2.00
2019-03-01T21:55:37.266Z,2.43
2019-03-01T21:58:12.385Z,2.03
2019-03-01T22:00:47.405Z,2.27
2019-03-01T22:03:24.798Z,2.07
2019-03-01T22:05:59.803Z,1.73
2019-03-01T22:08:34.983Z,2.30
2019-03-01T22:11:10.582Z,2.70
2019-03-01T22:13:46.637Z,2.97
2019-03-01T22:16:21.563Z,2.53
2019-03-01T22:18:58.662Z,2.43
2019-03-01T22:21:34.628Z,2.13
2019-03-01T22:24:09.539Z,2.80
2019-03-01T22:26:46.695Z,3.20
2019-03-01T22:29:21.021Z,2.70
2019-03-01T22:31:55.894Z,2.67
2019-03-01T22:34:31.093Z,3.00
2019-03-01T22:37:06.948Z,2.73
2019-03-01T22:39:42.850Z,3.17
2019-03-01T22:42:17.799Z,3.80
2019-03-01T22:44:53.103Z,2.80
2019-03-01T22:47:28.157Z,3.47
2019-03-01T22:50:03.963Z,2.90
2019-03-01T22:52:39.661Z,3.87
2019-03-01T22:55:15.873Z,3.07
2019-03-01T22:57:50.626Z,2.93
2019-03-01T23:01:16.019Z,4.73
2019-03-01T23:04:16.417Z,3.33
2019-03-01T23:06:52.628Z,3.10
2019-03-01T23:09:27.836Z,3.87
2019-03-01T23:12:08.045Z,4.17
2019-03-01T23:14:41.931Z,3.50
2019-03-01T23:17:16.879Z,3.30
2019-03-01T23:19:52.796Z,3.67
2019-03-01T23:22:27.741Z,2.57
2019-03-01T23:25:03.909Z,2.87
2019-03-01T23:27:38.917Z,2.73
2019-03-01T23:30:14.008Z,2.90
2019-03-01T23:32:52.279Z,3.23
2019-03-01T23:35:25.639Z,2.30
2019-03-01T23:38:00.565Z,4.00
2019-03-01T23:40:35.813Z,3.57
2019-03-01T23:43:12.749Z,2.97
2019-03-01T23:45:50.015Z,2.70
2019-03-01T23:48:25.232Z,2.30
2019-03-01T23:51:00.157Z,3.20
2019-03-01T23:53:35.135Z,2.20
2019-03-01T23:56:09.989Z,2.30
2019-03-01T23:58:47.999Z,2.30
